createdAt,value
2018-09-17T00:00:20.059Z,8.47
2018-09-17T00:02:48.030Z,7.43
2018-09-17T00:05:15.884Z,7.73
2018-09-17T00:07:43.668Z,7.93
2018-09-17T00:10:11.575Z,8.00
2018-09-17T00:12:39.389Z,8.30
2018-09-17T00:15:07.280Z,8.23
2018-09-17T00:17:35.190Z,8.60
2018-09-17T00:20:03.129Z,8.40
2018-09-17T00:22:30.880Z,7.83
2018-09-17T00:24:58.781Z,8.97
2018-09-17T00:27:26.594Z,7.90
2018-09-17T00:29:54.394Z,8.43
2018-09-17T00:32:22.284Z,8.27
2018-09-17T00:34:50.110Z,8.07
2018-09-17T00:37:17.960Z,8.73
2018-09-17T00:39:45.769Z,8.70
2018-09-17T00:42:13.562Z,7.27
2018-09-17T00:44:41.386Z,7.47
2018-09-17T00:47:09.384Z,8.37
2018-09-17T00:49:37.200Z,8.13
2018-09-17T00:52:05.086Z,8.20
2018-09-17T00:54:32.961Z,8.67
2018-09-17T00:57:00.812Z,8.20
2018-09-17T00:59:28.720Z,8.40
2018-09-17T01:01:56.546Z,7.67
2018-09-17T01:04:24.415Z,8.60
2018-09-17T01:06:52.270Z,8.50
2018-09-17T01:09:25.483Z,9.07
2018-09-17T01:11:53.356Z,8.70
2018-09-17T01:14:21.204Z,8.40
2018-09-17T01:16:49.117Z,8.83
2018-09-17T01:19:16.938Z,9.13
2018-09-17T01:21:44.828Z,9.10
2018-09-17T01:24:12.669Z,8.90
2018-09-17T01:26:40.560Z,8.60
2018-09-17T01:29:08.418Z,8.80
2018-09-17T01:31:36.294Z,8.60
2018-09-17T01:34:04.133Z,9.00
2018-09-17T01:36:32.020Z,8.70
2018-09-17T01:38:59.981Z,8.60
2018-09-17T01:41:27.994Z,9.20
2018-09-17T01:43:55.801Z,8.67
2018-09-17T01:46:23.658Z,8.83
2018-09-17T01:48:51.474Z,8.50
2018-09-17T01:51:19.385Z,8.70
2018-09-17T01:53:47.180Z,8.70
2018-09-17T01:56:15.046Z,9.27
2018-09-17T01:58:42.930Z,8.97
2018-09-17T02:01:10.772Z,8.50
2018-09-17T02:03:38.612Z,8.90
2018-09-17T02:06:06.445Z,9.20
2018-09-17T02:08:34.236Z,8.33
2018-09-17T02:11:02.140Z,9.07
2018-09-17T02:13:30.092Z,9.27
2018-09-17T02:15:58.169Z,8.60
2018-09-17T02:18:25.952Z,9.20
2018-09-17T02:20:53.948Z,9.00
2018-09-17T02:23:21.819Z,9.30
2018-09-17T02:25:49.682Z,10.30
2018-09-17T02:28:17.538Z,8.70
2018-09-17T02:30:45.444Z,9.70
2018-09-17T02:33:13.281Z,9.20
2018-09-17T02:35:41.075Z,8.67
2018-09-17T02:38:08.916Z,9.57
2018-09-17T02:40:36.899Z,9.53
2018-09-17T02:43:04.740Z,9.80
2018-09-17T02:45:32.614Z,9.70
2018-09-17T02:48:00.431Z,9.70
2018-09-17T02:50:28.312Z,8.90
2018-09-17T02:52:56.353Z,9.23
2018-09-17T02:55:24.178Z,9.43
2018-09-17T02:57:52.142Z,9.63
2018-09-17T03:00:20.505Z,9.20
2018-09-17T03:02:49.005Z,9.30
2018-09-17T03:05:16.889Z,9.40
2018-09-17T03:07:44.782Z,8.57
2018-09-17T03:10:12.796Z,9.30
2018-09-17T03:12:40.833Z,10.50
2018-09-17T03:15:13.994Z,9.00
2018-09-17T03:17:41.876Z,9.17
2018-09-17T03:20:09.716Z,9.43
2018-09-17T03:22:37.596Z,8.80
2018-09-17T03:25:05.522Z,9.60
2018-09-17T03:27:33.343Z,9.00
2018-09-17T03:30:01.319Z,10.00
2018-09-17T03:32:29.138Z,8.97
2018-09-17T03:34:57.020Z,10.13
2018-09-17T03:37:27.003Z,9.40
2018-09-17T03:39:55.131Z,10.43
2018-09-17T03:42:22.971Z,9.30
2018-09-17T03:44:50.728Z,9.20
2018-09-17T03:47:18.495Z,9.33
2018-09-17T03:49:46.265Z,9.80
2018-09-17T03:52:14.121Z,8.67
2018-09-17T03:54:41.886Z,9.40
2018-09-17T03:57:09.665Z,9.30
2018-09-17T03:59:37.538Z,9.13
2018-09-17T04:02:05.404Z,7.80
2018-09-17T04:04:33.252Z,7.57
2018-09-17T04:07:01.131Z,9.20
2018-09-17T04:09:28.911Z,9.67
2018-09-17T04:11:56.781Z,9.50
2018-09-17T04:14:24.634Z,9.67
2018-09-17T04:16:52.528Z,8.67
2018-09-17T04:19:20.382Z,9.60
2018-09-17T04:21:48.261Z,8.60
2018-09-17T04:24:16.133Z,8.57
2018-09-17T04:26:44.003Z,10.30
2018-09-17T04:29:11.970Z,9.00
2018-09-17T04:31:39.880Z,8.67
2018-09-17T04:34:07.686Z,7.63
2018-09-17T04:36:35.625Z,8.20
2018-09-17T04:39:03.457Z,7.60
2018-09-17T04:41:31.418Z,7.60
2018-09-17T04:43:59.256Z,9.77
2018-09-17T04:46:27.133Z,9.97
2018-09-17T04:48:54.982Z,9.47
2018-09-17T04:51:22.732Z,8.83
2018-09-17T04:53:50.533Z,9.00
2018-09-17T04:56:18.389Z,9.10
2018-09-17T04:58:46.253Z,9.43
2018-09-17T05:01:14.104Z,8.90
2018-09-17T05:03:42.800Z,8.00
2018-09-17T05:06:10.668Z,10.50
2018-09-17T05:08:38.451Z,10.50
2018-09-17T05:11:06.185Z,10.07
2018-09-17T05:13:34.161Z,10.00
2018-09-17T05:16:01.993Z,9.87
2018-09-17T05:18:29.967Z,10.77
2018-09-17T05:20:57.793Z,9.70
2018-09-17T05:23:25.665Z,10.00
2018-09-17T05:25:53.427Z,10.33
2018-09-17T05:28:21.394Z,11.27
2018-09-17T05:30:49.257Z,9.53
2018-09-17T05:33:17.129Z,10.83
2018-09-17T05:35:44.988Z,9.90
2018-09-17T05:38:12.862Z,11.60
2018-09-17T05:40:40.722Z,11.50
2018-09-17T05:43:08.498Z,11.23
2018-09-17T05:45:36.333Z,10.80
2018-09-17T05:48:04.274Z,12.40
2018-09-17T05:50:32.095Z,11.90
2018-09-17T05:52:59.967Z,12.17
2018-09-17T05:55:28.534Z,11.90
2018-09-17T05:57:56.527Z,11.80
2018-09-17T06:00:24.359Z,12.90
2018-09-17T06:02:52.255Z,13.27
2018-09-17T06:05:20.110Z,13.13
2018-09-17T06:07:48.001Z,12.47
2018-09-17T06:10:16.935Z,12.10
2018-09-17T06:12:48.610Z,12.87
2018-09-17T06:15:16.705Z,11.53
2018-09-17T06:17:44.552Z,12.93
2018-09-17T06:20:12.347Z,13.00
2018-09-17T06:22:40.186Z,13.07
2018-09-17T06:25:08.061Z,12.90
2018-09-17T06:27:35.915Z,12.20
2018-09-17T06:30:03.793Z,12.63
2018-09-17T06:32:31.639Z,12.30
2018-09-17T06:34:59.439Z,13.00
2018-09-17T06:37:27.305Z,12.83
2018-09-17T06:39:55.157Z,12.53
2018-09-17T06:42:22.896Z,13.60
2018-09-17T06:44:50.682Z,12.83
2018-09-17T06:47:18.483Z,12.07
2018-09-17T06:49:46.350Z,13.60
2018-09-17T06:52:14.173Z,13.83
2018-09-17T06:54:42.143Z,13.67
2018-09-17T06:57:10.033Z,12.90
2018-09-17T06:59:37.985Z,12.50
2018-09-17T07:02:18.019Z,12.97
2018-09-17T07:04:47.261Z,13.50
2018-09-17T07:07:15.173Z,12.93
2018-09-17T07:09:43.002Z,14.07
2018-09-17T07:12:10.954Z,13.20
2018-09-17T07:14:38.815Z,12.33
2018-09-17T07:17:06.722Z,13.27
2018-09-17T07:19:34.593Z,12.77
2018-09-17T07:22:02.601Z,12.10
2018-09-17T07:24:30.401Z,12.23
2018-09-17T07:26:58.356Z,12.57
2018-09-17T07:29:26.249Z,13.07
2018-09-17T07:31:54.095Z,12.43
2018-09-17T07:34:21.970Z,12.13
2018-09-17T07:36:49.822Z,12.90
2018-09-17T07:39:17.712Z,13.43
2018-09-17T07:41:46.770Z,13.57
2018-09-17T07:44:15.691Z,12.27
2018-09-17T07:46:43.913Z,12.33
2018-09-17T07:49:11.745Z,12.13
2018-09-17T07:51:39.590Z,12.47
2018-09-17T07:54:07.390Z,12.97
2018-09-17T07:56:35.248Z,13.90
2018-09-17T07:59:03.634Z,12.90
2018-09-17T08:01:31.486Z,12.63
2018-09-17T08:03:59.982Z,12.20
2018-09-17T08:06:28.054Z,12.87
2018-09-17T08:08:55.961Z,12.33
2018-09-17T08:11:23.771Z,11.87
2018-09-17T08:13:51.665Z,13.23
2018-09-17T08:16:19.498Z,12.67
2018-09-17T08:18:47.371Z,12.53
2018-09-17T08:21:15.474Z,11.87
2018-09-17T08:23:43.359Z,11.70
2018-09-17T08:26:11.195Z,11.90
2018-09-17T08:28:39.038Z,13.10
2018-09-17T08:31:06.851Z,11.70
2018-09-17T08:33:34.679Z,11.83
2018-09-17T08:36:02.557Z,12.03
2018-09-17T08:38:30.434Z,12.60
2018-09-17T08:40:58.296Z,11.63
2018-09-17T08:43:26.131Z,12.43
2018-09-17T08:45:54.013Z,11.80
2018-09-17T08:48:21.890Z,12.80
2018-09-17T08:50:49.752Z,12.37
2018-09-17T08:53:17.629Z,10.93
2018-09-17T08:55:47.753Z,9.77
2018-09-17T08:58:20.956Z,10.80
2018-09-17T09:00:54.073Z,11.10
2018-09-17T09:03:26.718Z,10.13
2018-09-17T09:05:59.795Z,10.80
2018-09-17T09:08:27.682Z,10.80
2018-09-17T09:11:00.923Z,11.10
2018-09-17T09:13:38.933Z,10.37
2018-09-17T09:16:07.449Z,10.63
2018-09-17T09:18:35.704Z,10.90
2018-09-17T09:21:03.501Z,11.10
2018-09-17T09:23:31.822Z,11.30
2018-09-17T09:25:59.713Z,10.93
2018-09-17T09:28:27.594Z,11.17
2018-09-17T09:30:55.465Z,12.10
2018-09-17T09:33:23.335Z,10.80
2018-09-17T09:35:51.331Z,10.90
2018-09-17T09:38:19.169Z,10.70
2018-09-17T09:40:47.021Z,10.73
2018-09-17T09:43:14.914Z,10.43
2018-09-17T09:45:42.787Z,11.43
2018-09-17T09:48:10.631Z,9.80
2018-09-17T09:50:39.533Z,11.40
2018-09-17T09:53:07.367Z,9.53
2018-09-17T09:55:35.156Z,9.63
2018-09-17T09:58:02.932Z,10.43
2018-09-17T10:00:35.970Z,10.00
2018-09-17T10:03:27.049Z,9.73
2018-09-17T10:05:54.992Z,9.53
2018-09-17T10:08:22.859Z,10.57
2018-09-17T10:10:55.817Z,10.17
2018-09-17T10:13:28.682Z,10.40
2018-09-17T10:15:58.128Z,11.00
2018-09-17T10:18:31.272Z,9.97
2018-09-17T10:20:59.555Z,9.97
2018-09-17T10:23:27.547Z,10.47
2018-09-17T10:25:55.348Z,11.03
2018-09-17T10:28:23.189Z,9.20
2018-09-17T10:30:50.984Z,10.70
2018-09-17T10:33:18.825Z,10.67
2018-09-17T10:35:46.580Z,10.10
2018-09-17T10:38:14.438Z,8.87
2018-09-17T10:40:42.224Z,9.07
2018-09-17T10:43:10.016Z,8.67
2018-09-17T10:45:37.854Z,8.97
2018-09-17T10:48:05.616Z,9.30
2018-09-17T10:50:33.477Z,9.40
2018-09-17T10:53:01.248Z,8.87
2018-09-17T10:55:29.117Z,8.20
2018-09-17T10:57:57.094Z,9.57
2018-09-17T11:00:24.979Z,9.00
2018-09-17T11:02:52.865Z,9.53
2018-09-17T11:05:20.696Z,10.37
2018-09-17T11:07:48.483Z,9.80
2018-09-17T11:10:16.347Z,10.00
2018-09-17T11:12:44.192Z,9.97
2018-09-17T11:15:11.975Z,9.53
2018-09-17T11:17:39.902Z,9.70
2018-09-17T11:20:07.725Z,10.57
2018-09-17T11:22:35.568Z,9.10
2018-09-17T11:25:03.534Z,9.40
2018-09-17T11:27:31.389Z,9.60
2018-09-17T11:29:59.193Z,8.93
2018-09-17T11:32:27.044Z,10.43
2018-09-17T11:34:54.911Z,9.77
2018-09-17T11:37:22.790Z,9.13
2018-09-17T11:39:50.679Z,10.17
2018-09-17T11:42:18.518Z,10.13
2018-09-17T11:44:46.439Z,9.60
2018-09-17T11:47:14.237Z,8.70
2018-09-17T11:49:42.019Z,9.60
2018-09-17T11:52:09.885Z,8.93
2018-09-17T11:54:37.771Z,9.50
2018-09-17T11:57:05.682Z,8.53
2018-09-17T11:59:33.368Z,8.80
2018-09-17T12:02:04.304Z,9.17
2018-09-17T12:04:36.226Z,8.07
2018-09-17T12:07:09.349Z,8.87
2018-09-17T12:09:37.139Z,8.90
2018-09-17T12:12:05.035Z,9.07
2018-09-17T12:14:33.024Z,9.20
2018-09-17T12:17:00.804Z,8.90
2018-09-17T12:19:28.808Z,9.70
2018-09-17T12:21:56.655Z,8.57
2018-09-17T12:24:24.527Z,8.47
2018-09-17T12:26:52.303Z,9.23
2018-09-17T12:29:20.325Z,9.30
2018-09-17T12:31:48.124Z,9.40
2018-09-17T12:34:15.992Z,9.30
2018-09-17T12:36:43.768Z,8.93
2018-09-17T12:39:12.750Z,11.77
2018-09-17T12:41:40.680Z,10.20
2018-09-17T12:44:08.431Z,8.83
2018-09-17T12:46:36.296Z,8.80
2018-09-17T12:49:04.142Z,8.27
2018-09-17T12:51:32.060Z,9.07
2018-09-17T12:53:59.873Z,9.90
2018-09-17T12:56:27.739Z,10.10
2018-09-17T12:58:55.599Z,9.00
2018-09-17T13:01:23.490Z,9.50
2018-09-17T13:03:51.320Z,8.87
2018-09-17T13:06:19.239Z,9.90
2018-09-17T13:08:47.099Z,9.30
2018-09-17T13:11:14.944Z,8.77
2018-09-17T13:13:42.800Z,10.00
2018-09-17T13:16:10.565Z,9.73
2018-09-17T13:18:38.521Z,8.50
2018-09-17T13:21:06.325Z,8.93
2018-09-17T13:23:34.162Z,8.73
2018-09-17T13:26:01.937Z,8.70
2018-09-17T13:28:29.817Z,8.90
2018-09-17T13:30:57.724Z,8.80
2018-09-17T13:33:25.543Z,8.50
2018-09-17T13:35:53.547Z,9.87
2018-09-17T13:38:21.381Z,8.90
2018-09-17T13:40:49.290Z,9.20
2018-09-17T13:43:17.133Z,9.40
2018-09-17T13:45:45.136Z,8.63
2018-09-17T13:48:12.979Z,10.20
2018-09-17T13:50:40.837Z,9.30
2018-09-17T13:53:08.778Z,8.47
2018-09-17T13:55:36.969Z,8.03
2018-09-17T13:58:04.827Z,8.73
2018-09-17T14:00:32.710Z,8.50
2018-09-17T14:03:00.573Z,9.30
2018-09-17T14:05:28.488Z,8.87
2018-09-17T14:07:56.551Z,8.87
2018-09-17T14:10:24.508Z,8.80
2018-09-17T14:12:52.230Z,8.27
2018-09-17T14:15:20.273Z,8.03
2018-09-17T14:17:48.201Z,9.20
2018-09-17T14:20:16.101Z,8.10
2018-09-17T14:22:43.868Z,8.13
2018-09-17T14:25:11.695Z,7.80
2018-09-17T14:27:39.545Z,8.50
2018-09-17T14:30:07.632Z,8.50
2018-09-17T14:32:40.902Z,8.83
2018-09-17T14:35:08.531Z,7.90
2018-09-17T14:37:36.381Z,7.87
2018-09-17T14:40:04.232Z,7.90
2018-09-17T14:42:32.123Z,8.63
2018-09-17T14:44:59.963Z,8.27
2018-09-17T14:47:27.869Z,8.40
2018-09-17T14:49:55.701Z,8.40
2018-09-17T14:52:23.628Z,8.70
2018-09-17T14:54:51.426Z,7.97
2018-09-17T14:57:19.317Z,9.03
2018-09-17T14:59:47.174Z,8.80
2018-09-17T15:02:15.044Z,8.47
2018-09-17T15:04:42.916Z,8.90
2018-09-17T15:07:10.753Z,8.83
2018-09-17T15:09:38.621Z,9.17
2018-09-17T15:12:06.524Z,9.40
2018-09-17T15:14:34.430Z,8.80
2018-09-17T15:17:02.219Z,9.00
2018-09-17T15:19:30.247Z,9.67
2018-09-17T15:21:58.080Z,8.90
2018-09-17T15:24:25.971Z,9.37
2018-09-17T15:26:53.813Z,9.60
2018-09-17T15:29:21.611Z,9.60
2018-09-17T15:31:49.474Z,9.60
2018-09-17T15:34:17.447Z,9.80
2018-09-17T15:36:45.177Z,9.67
2018-09-17T15:39:14.083Z,9.77
2018-09-17T15:41:42.100Z,9.10
2018-09-17T15:44:10.394Z,9.17
2018-09-17T15:46:38.471Z,9.57
2018-09-17T15:49:06.656Z,9.43
2018-09-17T15:51:34.435Z,9.90
2018-09-17T15:54:02.298Z,10.13
2018-09-17T15:56:30.110Z,9.37
2018-09-17T15:58:58.213Z,10.70
2018-09-17T16:01:26.262Z,9.83
2018-09-17T16:03:54.069Z,10.47
2018-09-17T16:06:21.934Z,10.80
2018-09-17T16:08:49.863Z,10.43
2018-09-17T16:11:17.661Z,9.73
2018-09-17T16:13:45.564Z,9.63
2018-09-17T16:16:13.345Z,9.13
2018-09-17T16:18:41.221Z,10.60
2018-09-17T16:21:09.134Z,9.77
2018-09-17T16:23:37.015Z,9.67
2018-09-17T16:26:04.882Z,9.90
2018-09-17T16:28:32.661Z,10.40
2018-09-17T16:31:00.619Z,9.87
2018-09-17T16:33:28.489Z,11.00
2018-09-17T16:35:56.332Z,10.10
2018-09-17T16:38:24.379Z,9.50
2018-09-17T16:40:53.750Z,9.90
2018-09-17T16:43:22.197Z,10.60
2018-09-17T16:45:50.089Z,9.97
2018-09-17T16:48:18.254Z,10.30
2018-09-17T16:50:46.115Z,10.33
2018-09-17T16:53:14.030Z,11.27
2018-09-17T16:55:41.862Z,10.83
2018-09-17T16:58:09.890Z,10.00
2018-09-17T17:00:37.930Z,10.40
2018-09-17T17:03:06.306Z,9.47
2018-09-17T17:05:34.147Z,10.63
2018-09-17T17:08:02.060Z,10.17
2018-09-17T17:10:29.875Z,10.50
2018-09-17T17:12:57.728Z,10.13
2018-09-17T17:15:25.564Z,10.90
2018-09-17T17:17:53.383Z,10.10
2018-09-17T17:20:21.349Z,11.37
2018-09-17T17:22:49.129Z,11.43
2018-09-17T17:25:17.115Z,11.90
2018-09-17T17:27:45.132Z,10.30
2018-09-17T17:30:13.042Z,10.90
2018-09-17T17:32:40.946Z,11.60
2018-09-17T17:35:08.760Z,10.47
2018-09-17T17:37:36.606Z,11.30
2018-09-17T17:40:04.780Z,10.90
2018-09-17T17:42:32.543Z,11.20
2018-09-17T17:45:00.449Z,11.03
2018-09-17T17:47:28.254Z,11.47
2018-09-17T17:49:56.061Z,10.83
2018-09-17T17:52:24.068Z,11.47
2018-09-17T17:54:51.929Z,11.50
2018-09-17T17:57:19.792Z,12.13
2018-09-17T17:59:47.642Z,12.10
2018-09-17T18:02:15.624Z,11.10
2018-09-17T18:04:43.725Z,11.53
2018-09-17T18:07:11.692Z,11.83
2018-09-17T18:09:39.527Z,13.30
2018-09-17T18:12:07.413Z,11.13
2018-09-17T18:14:35.573Z,11.97
2018-09-17T18:17:04.221Z,11.60
2018-09-17T18:19:32.101Z,11.50
2018-09-17T18:21:59.978Z,11.37
2018-09-17T18:24:27.976Z,12.67
2018-09-17T18:26:55.906Z,11.70
2018-09-17T18:29:23.701Z,12.17
2018-09-17T18:31:51.664Z,12.90
2018-09-17T18:34:19.545Z,12.40
2018-09-17T18:36:47.476Z,13.13
2018-09-17T18:39:15.399Z,11.83
2018-09-17T18:41:43.243Z,11.70
2018-09-17T18:44:11.089Z,11.30
2018-09-17T18:46:38.981Z,11.63
2018-09-17T18:49:06.744Z,13.30
2018-09-17T18:51:34.589Z,12.27
2018-09-17T18:54:02.484Z,11.80
2018-09-17T18:56:30.436Z,13.00
2018-09-17T18:58:58.230Z,12.40
2018-09-17T19:01:26.035Z,13.50
2018-09-17T19:03:53.915Z,13.30
2018-09-17T19:06:21.832Z,12.33
2018-09-17T19:08:49.815Z,13.00
2018-09-17T19:11:17.675Z,12.47
2018-09-17T19:13:51.688Z,12.93
2018-09-17T19:16:23.755Z,12.67
2018-09-17T19:18:51.887Z,13.67
2018-09-17T19:21:19.873Z,13.00
2018-09-17T19:23:52.913Z,13.60
2018-09-17T19:26:20.913Z,12.87
2018-09-17T19:28:53.962Z,12.90
2018-09-17T19:31:21.878Z,12.90
2018-09-17T19:33:49.766Z,14.10
2018-09-17T19:36:17.828Z,13.70
2018-09-17T19:38:50.847Z,13.57
2018-09-17T19:41:18.674Z,14.30
2018-09-17T19:43:46.521Z,14.20
2018-09-17T19:46:18.486Z,13.17
2018-09-17T19:48:46.804Z,13.90
2018-09-17T19:51:19.783Z,13.13
2018-09-17T19:53:47.694Z,13.43
2018-09-17T19:56:15.558Z,14.30
2018-09-17T19:58:48.519Z,15.00
2018-09-17T20:01:16.342Z,15.37
2018-09-17T20:03:44.414Z,14.37
2018-09-17T20:06:17.563Z,15.80
2018-09-17T20:08:45.369Z,14.73
2018-09-17T20:11:13.293Z,14.53
2018-09-17T20:13:41.113Z,13.50
2018-09-17T20:16:09.002Z,14.50
2018-09-17T20:18:36.844Z,15.23
2018-09-17T20:21:04.764Z,13.70
2018-09-17T20:23:32.579Z,15.47
2018-09-17T20:26:00.475Z,15.40
2018-09-17T20:28:28.327Z,14.50
2018-09-17T20:30:56.642Z,14.03
2018-09-17T20:33:27.364Z,14.50
2018-09-17T20:35:55.318Z,13.80
2018-09-17T20:38:23.225Z,13.60
2018-09-17T20:40:51.050Z,14.43
2018-09-17T20:43:18.911Z,15.20
2018-09-17T20:45:46.788Z,15.90
2018-09-17T20:48:14.719Z,15.13
2018-09-17T20:50:42.634Z,13.60
2018-09-17T20:53:10.389Z,15.50
2018-09-17T20:55:38.229Z,15.60
2018-09-17T20:58:06.084Z,15.37
2018-09-17T21:00:34.038Z,15.63
2018-09-17T21:03:01.860Z,15.47
2018-09-17T21:05:29.826Z,15.53
2018-09-17T21:07:58.052Z,15.97
2018-09-17T21:10:26.085Z,15.00
2018-09-17T21:12:53.958Z,15.60
2018-09-17T21:15:21.594Z,14.63
2018-09-17T21:17:49.193Z,15.50
2018-09-17T21:20:16.830Z,14.20
2018-09-17T21:22:44.464Z,15.00
2018-09-17T21:25:12.102Z,15.53
2018-09-17T21:27:39.750Z,14.83
2018-09-17T21:30:07.899Z,14.80
2018-09-17T21:32:35.521Z,14.70
2018-09-17T21:35:03.147Z,15.10
2018-09-17T21:37:31.055Z,14.90
2018-09-17T21:39:58.661Z,15.60
2018-09-17T21:42:26.293Z,14.47
2018-09-17T21:44:53.930Z,15.03
2018-09-17T21:47:21.521Z,14.57
2018-09-17T21:49:49.127Z,13.93
2018-09-17T21:52:16.827Z,15.60
2018-09-17T21:54:44.458Z,14.27
2018-09-17T21:57:12.121Z,14.30
2018-09-17T21:59:39.720Z,14.20
2018-09-17T22:02:07.348Z,15.20
2018-09-17T22:04:34.983Z,15.60
2018-09-17T22:07:02.639Z,14.57
2018-09-17T22:09:30.445Z,16.07
2018-09-17T22:11:58.320Z,15.10
2018-09-17T22:14:26.210Z,14.50
2018-09-17T22:16:54.047Z,15.43
2018-09-17T22:19:22.011Z,14.87
2018-09-17T22:21:49.892Z,15.97
2018-09-17T22:24:17.583Z,16.07
2018-09-17T22:26:45.414Z,16.23
2018-09-17T22:29:13.450Z,15.47
2018-09-17T22:31:41.146Z,15.90
2018-09-17T22:34:09.074Z,14.50
2018-09-17T22:36:36.909Z,15.30
2018-09-17T22:39:06.632Z,14.90
2018-09-17T22:41:34.380Z,15.00
2018-09-17T22:44:02.227Z,14.73
2018-09-17T22:46:30.115Z,15.63
2018-09-17T22:48:57.982Z,15.50
2018-09-17T22:51:25.837Z,15.27
2018-09-17T22:53:53.724Z,14.10
2018-09-17T22:56:21.618Z,14.30
2018-09-17T22:58:49.439Z,15.03
2018-09-17T23:01:17.310Z,14.30
2018-09-17T23:03:45.186Z,15.47
2018-09-17T23:06:13.160Z,14.93
2018-09-17T23:08:41.021Z,14.63
2018-09-17T23:11:08.754Z,14.33
2018-09-17T23:13:36.597Z,14.57
2018-09-17T23:16:04.446Z,14.40
2018-09-17T23:18:32.263Z,15.07
2018-09-17T23:21:00.062Z,14.10
2018-09-17T23:23:27.949Z,14.77
2018-09-17T23:25:55.928Z,14.17
2018-09-17T23:28:23.734Z,14.20
2018-09-17T23:30:51.532Z,14.63
2018-09-17T23:33:19.372Z,13.47
2018-09-17T23:35:47.054Z,13.13
2018-09-17T23:38:14.959Z,14.20
2018-09-17T23:40:42.854Z,15.37
2018-09-17T23:43:10.662Z,14.10
2018-09-17T23:45:38.497Z,14.03
2018-09-17T23:48:06.396Z,12.93
2018-09-17T23:50:34.255Z,15.30
2018-09-17T23:53:02.108Z,14.80
2018-09-17T23:55:29.990Z,15.37
2018-09-17T23:57:57.834Z,14.70
